Time;durP1;ratioP1;P1;durP2;ratioP2;P2;SDS_P1;SDS_P2;PMS_P1;PMS_P2;Temp;Humidity;BMP_temperature;BMP_pressure;BME280_temperature;BME280_humidity;BME280_pressure;Samples;Min_cycle;Max_cycle;Signal;HPM_P1;HPM_P2
2022/07/08 00:01:57;;;;;;;10.10;7.35;;;;;;;25.43;48.07;99328.63;5013695;28;20041;-85
2022/07/08 00:04:23;;;;;;;7.82;7.03;;;;;;;26.08;48.24;99429.38;5013891;28;20031;-84
2022/07/08 00:06:48;;;;;;;8.00;7.20;;;;;;;25.63;48.09;99359.03;5012616;28;20022;-84
2022/07/08 00:09:14;;;;;;;8.75;7.15;;;;;;;25.72;48.16;99363.88;5029459;28;20029;-85
2022/07/08 00:11:41;;;;;;;7.50;6.78;;;;;;;25.87;48.01;99385.41;5029196;28;20406;-85
2022/07/08 00:14:07;;;;;;;8.02;7.32;;;;;;;25.61;47.90;99336.06;5028584;28;20447;-84
2022/07/08 00:16:40;;;;;;;7.60;6.60;;;;;;;25.40;47.75;99312.97;5013313;28;20406;-84
2022/07/08 00:19:15;;;;;;;8.18;6.97;;;;;;;24.98;47.84;99266.47;5013070;28;20021;-84
2022/07/08 00:21:45;;;;;;;7.72;7.00;;;;;;;25.71;48.01;99381.19;5013048;28;20017;-85
2022/07/08 00:24:13;;;;;;;7.65;6.93;;;;;;;25.73;47.83;99384.44;5012684;28;20034;-85
2022/07/08 00:26:39;;;;;;;7.93;6.90;;;;;;;25.91;48.18;99430.53;5012558;28;20494;-85
2022/07/08 00:29:05;;;;;;;8.27;7.55;;;;;;;25.90;48.82;99417.28;5011371;28;20506;-85
2022/07/08 00:31:30;;;;;;;9.40;7.97;;;;;;;25.83;48.76;99409.50;5027793;28;20025;-85
2022/07/08 00:33:56;;;;;;;8.88;8.13;;;;;;;25.79;49.13;99396.81;5012541;28;20030;-85
2022/07/08 00:36:22;;;;;;;10.38;8.85;;;;;;;25.65;49.25;99399.31;5016480;28;20030;-84
2022/07/08 00:38:48;;;;;;;9.68;8.50;;;;;;;24.99;49.24;99278.06;5047014;28;20064;-84
2022/07/08 00:41:14;;;;;;;8.57;7.78;;;;;;;25.42;49.51;99368.38;5029608;28;20072;-84
2022/07/08 00:43:42;;;;;;;10.05;7.47;;;;;;;25.10;49.50;99295.84;5028209;28;20018;-85
2022/07/08 00:46:08;;;;;;;10.18;9.20;;;;;;;25.33;49.49;99341.13;5012588;28;20022;-84
2022/07/08 00:48:35;;;;;;;9.68;8.77;;;;;;;25.61;49.77;99365.81;5012637;28;20030;-85
2022/07/08 00:51:05;;;;;;;10.20;9.13;;;;;;;25.66;49.67;99379.34;5012867;28;20032;-85
2022/07/08 00:53:32;;;;;;;9.82;8.40;;;;;;;25.50;49.66;99354.25;5012258;28;20101;-85
2022/07/08 00:55:59;;;;;;;9.85;8.63;;;;;;;25.65;50.04;99378.53;5010742;28;20082;-85
2022/07/08 00:58:25;;;;;;;9.68;8.10;;;;;;;25.21;49.93;99299.28;5010937;28;20474;-85
2022/07/08 01:00:52;;;;;;;9.65;8.63;;;;;;;25.12;49.91;99290.97;5012034;28;20468;-84
2022/07/08 01:03:18;;;;;;;11.18;8.48;;;;;;;25.08;49.93;99297.22;5012226;28;20084;-85
2022/07/08 01:05:43;;;;;;;10.48;9.45;;;;;;;25.21;50.21;99320.91;5012295;28;20096;-84
2022/07/08 01:08:10;;;;;;;10.18;9.18;;;;;;;25.55;50.40;99372.34;5011887;28;20046;-85
2022/07/08 01:10:36;;;;;;;10.95;9.95;;;;;;;25.23;50.43;99341.16;5012029;28;20033;-85
2022/07/08 01:13:02;;;;;;;10.90;9.90;;;;;;;25.21;50.47;99331.72;5027070;28;20028;-85
2022/07/08 01:15:28;;;;;;;14.27;11.02;;;;;;;24.79;50.65;99286.25;5026947;28;20018;-84
2022/07/08 01:17:53;;;;;;;11.43;10.32;;;;;;;25.10;51.25;99352.56;5011876;28;20026;-85
2022/07/08 01:20:18;;;;;;;11.13;10.05;;;;;;;24.59;51.71;99268.25;5011919;28;20105;-84
2022/07/08 01:22:44;;;;;;;10.57;9.57;;;;;;;24.88;52.06;99319.69;5012153;28;20028;-84
2022/07/08 01:25:10;;;;;;;9.73;8.93;;;;;;;24.92;52.83;99345.06;5026304;28;20030;-85
2022/07/08 01:27:36;;;;;;;10.20;9.20;;;;;;;24.57;53.25;99295.53;5012124;28;20136;-84
2022/07/08 01:30:03;;;;;;;10.50;9.45;;;;;;;24.87;53.25;99345.09;5011895;28;20025;-84
2022/07/08 01:32:34;;;;;;;10.90;9.73;;;;;;;24.98;53.95;99369.13;5026959;28;20568;-84
2022/07/08 01:35:00;;;;;;;10.90;9.80;;;;;;;24.23;54.13;99271.03;5011864;28;20026;-85
2022/07/08 01:37:26;;;;;;;9.95;8.95;;;;;;;24.94;54.30;99418.53;5011739;28;20088;-85
2022/07/08 01:39:51;;;;;;;10.30;9.40;;;;;;;24.36;54.78;99283.97;5011755;28;20021;-84
2022/07/08 01:42:16;;;;;;;9.93;9.13;;;;;;;24.93;54.54;99387.19;5011915;28;20030;-85
2022/07/08 01:44:42;;;;;;;10.25;9.35;;;;;;;24.55;54.83;99316.59;5011439;28;20033;-84
2022/07/08 01:47:08;;;;;;;9.82;9.02;;;;;;;24.53;55.06;99347.63;5011762;28;20032;-85
2022/07/08 01:49:33;;;;;;;10.48;9.52;;;;;;;24.55;55.42;99345.47;5011755;28;20018;-85
2022/07/08 01:51:59;;;;;;;10.90;9.88;;;;;;;23.48;55.92;99186.44;5011858;28;20065;-84
2022/07/08 01:54:24;;;;;;;9.45;8.70;;;;;;;23.35;56.10;99168.94;5011679;28;20022;-85
2022/07/08 01:56:50;;;;;;;8.90;8.20;;;;;;;24.20;56.00;99314.72;5026642;28;20038;-84
2022/07/08 01:59:15;;;;;;;9.23;8.43;;;;;;;23.25;55.97;99160.84;5011569;28;20034;-85
2022/07/08 02:01:41;;;;;;;10.55;9.55;;;;;;;23.31;56.42;99213.66;5010336;28;20453;-84
2022/07/08 02:04:07;;;;;;;9.65;8.68;;;;;;;24.29;56.03;99313.13;5011344;28;20495;-85
2022/07/08 02:06:32;;;;;;;9.50;8.70;;;;;;;24.49;56.22;99347.34;5011417;28;20029;-85
2022/07/08 02:08:58;;;;;;;9.93;9.02;;;;;;;24.47;56.35;99340.59;5011251;28;20108;-85
2022/07/08 02:14:07;;;;;;;10.88;9.88;;;;;;;24.36;56.74;99343.34;5011779;28;20029;-85
2022/07/08 02:16:32;;;;;;;10.30;9.30;;;;;;;24.00;56.49;99285.91;5011482;28;20026;-85
2022/07/08 02:18:58;;;;;;;10.95;10.05;;;;;;;23.79;56.67;99251.16;5026574;28;20028;-85
2022/07/08 02:21:23;;;;;;;10.90;9.52;;;;;;;24.12;56.88;99312.59;5011152;28;20045;-85
2022/07/08 02:23:49;;;;;;;10.30;9.40;;;;;;;23.97;56.76;99299.94;5011195;28;20022;-85
2022/07/08 02:26:14;;;;;;;10.30;9.40;;;;;;;23.90;57.10;99287.81;5011278;28;20104;-85
2022/07/08 02:28:40;;;;;;;10.80;9.77;;;;;;;24.06;56.94;99322.56;5026617;28;20022;-85
2022/07/08 02:31:05;;;;;;;10.23;9.40;;;;;;;23.72;56.92;99270.28;5026474;28;20022;-85
2022/07/08 02:33:30;;;;;;;11.88;10.45;;;;;;;23.98;56.99;99320.44;5011486;28;20028;-85
2022/07/08 02:35:56;;;;;;;12.13;10.98;;;;;;;24.03;57.14;99347.41;5011311;28;20018;-85
2022/07/08 02:38:22;;;;;;;12.18;10.90;;;;;;;24.24;57.10;99374.34;5013597;28;20026;-85
2022/07/08 02:40:48;;;;;;;12.60;11.43;;;;;;;24.36;57.46;99394.59;5014807;28;20025;-85
2022/07/08 02:43:13;;;;;;;11.45;10.35;;;;;;;23.79;57.02;99340.94;5014908;28;20034;-85
2022/07/08 02:45:38;;;;;;;12.25;11.02;;;;;;;23.66;57.11;99315.28;5013386;28;20018;-84
2022/07/08 02:48:07;;;;;;;13.95;12.65;;;;;;;24.01;57.15;99365.75;5014608;28;20029;-84
2022/07/08 02:50:33;;;;;;;12.52;11.50;;;;;;;23.80;57.43;99325.56;5029582;28;20491;-85
2022/07/08 02:52:58;;;;;;;11.50;10.40;;;;;;;23.93;57.47;99336.63;5014807;28;20025;-85
2022/07/08 02:55:24;;;;;;;11.75;10.55;;;;;;;24.24;57.43;99402.16;5021121;28;20047;-85
2022/07/08 02:57:50;;;;;;;11.32;10.32;;;;;;;23.70;57.88;99324.44;5015885;28;20056;-85
2022/07/08 03:00:16;;;;;;;11.48;10.38;;;;;;;23.87;57.95;99377.34;5015904;28;20422;-85
2022/07/08 03:02:41;;;;;;;10.82;9.93;;;;;;;24.17;57.92;99407.00;5015657;28;20022;-85
2022/07/08 03:05:07;;;;;;;11.52;10.43;;;;;;;23.80;57.80;99369.50;5013655;28;20022;-85
2022/07/08 03:07:32;;;;;;;11.88;10.77;;;;;;;23.73;57.76;99352.75;5029990;28;20445;-85
2022/07/08 03:09:58;;;;;;;11.27;10.18;;;;;;;23.41;58.08;99337.59;5014196;28;20148;-85
2022/07/08 03:12:23;;;;;;;12.15;10.98;;;;;;;23.08;58.04;99282.31;5029510;28;20025;-85
2022/07/08 03:14:48;;;;;;;11.85;10.25;;;;;;;23.98;58.33;99425.59;5013081;28;20014;-85
2022/07/08 03:17:14;;;;;;;11.38;10.10;;;;;;;23.54;57.76;99374.00;5014284;28;20018;-85
2022/07/08 03:19:39;;;;;;;10.63;9.63;;;;;;;23.88;57.87;99431.00;5012884;28;20022;-84
2022/07/08 03:22:05;;;;;;;10.77;9.77;;;;;;;23.95;57.77;99447.72;5013879;28;20435;-85
2022/07/08 03:24:30;;;;;;;11.00;9.25;;;;;;;23.89;58.06;99434.50;5029107;28;20064;-85
2022/07/08 03:26:56;;;;;;;11.93;10.88;;;;;;;23.79;57.67;99450.66;5013976;28;20121;-85
2022/07/08 03:29:22;;;;;;;11.27;10.18;;;;;;;23.88;57.47;99449.06;5014143;28;20495;-85
2022/07/08 03:31:47;;;;;;;13.38;12.05;;;;;;;23.60;57.37;99426.06;5014127;28;20022;-85
2022/07/08 03:34:13;;;;;;;13.60;12.07;;;;;;;23.80;57.33;99445.00;5013690;28;20025;-85
2022/07/08 03:36:39;;;;;;;13.73;11.98;;;;;;;23.45;57.38;99400.66;5013813;28;20048;-85
2022/07/08 03:39:04;;;;;;;15.82;12.13;;;;;;;23.43;57.32;99396.63;5013763;28;20093;-85
2022/07/08 03:41:30;;;;;;;12.77;11.48;;;;;;;23.56;57.39;99422.28;5028819;28;20148;-85
2022/07/08 03:43:55;;;;;;;14.70;12.15;;;;;;;23.33;57.27;99388.50;5013501;28;20026;-85
2022/07/08 03:46:21;;;;;;;14.95;11.73;;;;;;;22.63;57.24;99282.13;5013616;28;20026;-85
2022/07/08 03:48:47;;;;;;;14.55;12.45;;;;;;;23.39;57.19;99411.69;5027924;28;20100;-85
2022/07/08 03:51:13;;;;;;;13.68;12.27;;;;;;;23.25;57.46;99399.78;5013336;28;20026;-86
2022/07/08 03:53:39;;;;;;;14.23;13.00;;;;;;;23.03;57.56;99373.84;5013232;28;20108;-85
2022/07/08 03:56:05;;;;;;;13.00;11.63;;;;;;;22.68;57.37;99312.56;5012992;28;20487;-85
2022/07/08 03:58:31;;;;;;;12.57;11.38;;;;;;;22.97;57.30;99352.53;5013347;28;20030;-85
2022/07/08 04:00:57;;;;;;;12.75;11.48;;;;;;;23.23;57.54;99391.16;5013558;28;20103;-85
2022/07/08 04:03:22;;;;;;;13.63;11.15;;;;;;;23.39;57.62;99425.16;5012321;28;20470;-84
2022/07/08 04:05:48;;;;;;;12.75;11.52;;;;;;;23.31;57.48;99396.03;5012063;28;20030;-85
2022/07/08 04:08:13;;;;;;;12.98;11.80;;;;;;;22.96;57.34;99315.91;5012050;28;20018;-85
2022/07/08 04:10:39;;;;;;;12.63;11.48;;;;;;;23.75;56.85;99437.69;5013095;28;20414;-85
2022/07/08 04:13:04;;;;;;;13.43;12.23;;;;;;;23.53;57.29;99412.00;5013251;28;20491;-85
2022/07/08 04:15:30;;;;;;;13.35;12.07;;;;;;;23.18;57.10;99358.81;5013263;28;20052;-85
2022/07/08 04:17:55;;;;;;;16.27;14.68;;;;;;;23.76;57.19;99438.50;5012234;28;20030;-84
2022/07/08 04:20:21;;;;;;;16.10;14.70;;;;;;;23.80;56.90;99445.00;5012100;28;20049;-85
2022/07/08 04:22:46;;;;;;;15.30;13.95;;;;;;;23.80;57.03;99444.19;5028265;28;20490;-85
2022/07/08 04:25:12;;;;;;;16.08;14.07;;;;;;;23.39;57.29;99377.47;5012983;28;20173;-85
2022/07/08 04:27:37;;;;;;;15.07;13.68;;;;;;;23.59;57.07;99387.50;5013295;28;20422;-85
2022/07/08 04:30:04;;;;;;;13.95;12.63;;;;;;;23.57;57.06;99375.38;5013158;28;20041;-85
2022/07/08 04:32:29;;;;;;;15.38;13.98;;;;;;;24.00;56.56;99434.25;5013055;28;20025;-85
2022/07/08 04:34:58;;;;;;;12.88;11.77;;;;;;;24.09;56.26;99426.44;5011976;28;20124;-85
2022/07/08 04:37:25;;;;;;;16.08;12.65;;;;;;;23.61;56.18;99353.03;5028255;28;20030;-85
2022/07/08 04:39:50;;;;;;;14.02;12.63;;;;;;;24.20;55.90;99444.22;5011346;28;20493;-85
2022/07/08 04:42:16;;;;;;;13.63;12.30;;;;;;;23.94;55.98;99375.97;5012883;28;20056;-85
2022/07/08 04:44:41;;;;;;;13.68;12.07;;;;;;;23.93;55.53;99382.47;5017608;28;20105;-84
2022/07/08 04:47:06;;;;;;;13.73;12.32;;;;;;;23.95;55.63;99372.22;5018918;28;20034;-85
2022/07/08 04:49:32;;;;;;;13.27;11.98;;;;;;;23.56;55.47;99328.75;5013172;28;20033;-85
2022/07/08 04:51:58;;;;;;;12.45;11.25;;;;;;;23.52;55.36;99297.19;5013633;28;20025;-84
2022/07/08 04:54:24;;;;;;;12.50;11.23;;;;;;;22.94;55.15;99195.03;5012628;28;20072;-85
2022/07/08 04:56:49;;;;;;;12.40;11.15;;;;;;;23.62;55.01;99298.03;5012714;28;20054;-85
2022/07/08 04:59:15;;;;;;;12.50;11.10;;;;;;;24.20;55.05;99401.06;5012691;28;20102;-85
2022/07/08 05:01:40;;;;;;;11.55;10.48;;;;;;;24.34;54.59;99453.44;5027776;28;20544;-84
2022/07/08 05:04:05;;;;;;;12.05;9.80;;;;;;;23.65;54.71;99321.75;5012552;28;20029;-85
2022/07/08 05:06:32;;;;;;;10.63;9.40;;;;;;;24.14;54.34;99404.84;5012489;28;20018;-85
2022/07/08 05:08:57;;;;;;;9.10;7.25;;;;;;;23.96;53.51;99381.91;5011130;28;20026;-84
2022/07/08 05:11:23;;;;;;;7.93;7.22;;;;;;;23.73;52.90;99329.31;5012555;28;20415;-84
2022/07/08 05:13:48;;;;;;;6.90;6.25;;;;;;;24.44;52.46;99449.09;5027335;28;20021;-85
2022/07/08 05:16:13;;;;;;;7.53;6.05;;;;;;;24.51;52.00;99455.84;5010951;28;20014;-85
2022/07/08 05:18:40;;;;;;;6.53;5.93;;;;;;;23.99;51.87;99370.59;5012230;28;20026;-85
2022/07/08 05:21:05;;;;;;;6.53;5.93;;;;;;;24.20;51.68;99394.88;5027440;28;20030;-85
2022/07/08 05:23:30;;;;;;;7.47;6.78;;;;;;;24.17;51.38;99382.72;5027307;28;20022;-84
2022/07/08 05:25:56;;;;;;;8.13;5.90;;;;;;;23.95;51.28;99360.63;5011812;28;20021;-84
2022/07/08 05:28:21;;;;;;;6.57;6.07;;;;;;;24.17;51.15;99379.22;5023042;28;20120;-85
2022/07/08 05:30:47;;;;;;;6.82;6.22;;;;;;;23.84;50.57;99319.38;5029204;28;20029;-85
2022/07/08 05:33:12;;;;;;;6.95;5.18;;;;;;;23.79;50.50;99307.78;5044811;28;20029;-85
2022/07/08 05:35:38;;;;;;;6.38;5.88;;;;;;;24.37;50.17;99392.72;5051182;28;20416;-85
2022/07/08 05:38:03;;;;;;;5.72;5.22;;;;;;;24.02;49.84;99336.88;5032665;28;20422;-85
2022/07/08 05:40:29;;;;;;;6.10;5.55;;;;;;;24.22;50.18;99361.13;5032157;28;20029;-85
2022/07/08 05:42:54;;;;;;;6.25;5.45;;;;;;;24.88;49.66;99446.63;5032442;28;20025;-84
2022/07/08 05:45:19;;;;;;;6.13;5.38;;;;;;;24.17;49.69;99346.84;5032684;28;20023;-85
2022/07/08 05:47:45;;;;;;;5.45;5.05;;;;;;;24.85;49.43;99445.28;5034012;28;20029;-85
2022/07/08 05:50:11;;;;;;;4.70;4.30;;;;;;;24.77;49.32;99453.94;5023516;28;20409;-86
2022/07/08 05:52:37;;;;;;;4.40;4.10;;;;;;;24.99;48.74;99450.97;5025737;28;20030;-87
2022/07/08 05:55:02;;;;;;;5.22;4.82;;;;;;;25.09;48.25;99460.91;5047913;28;20009;-86
2022/07/08 05:57:28;;;;;;;5.47;5.00;;;;;;;24.81;48.28;99425.31;5048185;28;20045;-87
2022/07/08 05:59:53;;;;;;;6.15;5.30;;;;;;;24.69;48.11;99393.22;5032886;28;20493;-87
2022/07/08 06:02:19;;;;;;;6.15;5.63;;;;;;;24.65;48.57;99400.25;5024305;28;20581;-87
2022/07/08 06:04:44;;;;;;;5.57;5.07;;;;;;;24.77;48.41;99407.25;5041229;28;20556;-86
2022/07/08 06:07:10;;;;;;;5.75;5.22;;;;;;;24.81;48.52;99416.41;5042286;28;20026;-87
2022/07/08 06:09:37;;;;;;;6.65;6.00;;;;;;;24.81;48.35;99414.50;5032602;28;20025;-87
2022/07/08 06:12:03;;;;;;;6.78;6.07;;;;;;;24.06;48.19;99303.69;5032891;28;20022;-86
2022/07/08 06:14:28;;;;;;;6.90;6.22;;;;;;;24.45;48.38;99375.97;5028707;28;20033;-87
2022/07/08 06:16:54;;;;;;;7.85;6.53;;;;;;;24.45;48.78;99365.16;5016348;28;20026;-86
2022/07/08 06:19:19;;;;;;;9.85;8.75;;;;;;;24.52;48.72;99362.19;5016601;28;20033;-87
2022/07/08 06:21:45;;;;;;;15.32;13.82;;;;;;;24.78;48.80;99373.75;5033127;28;20493;-86
2022/07/08 06:24:10;;;;;;;7.78;7.03;;;;;;;24.66;48.52;99345.16;5028993;28;20055;-88
2022/07/08 06:26:37;;;;;;;6.90;6.30;;;;;;;25.37;48.43;99451.38;5026910;28;20603;-86
2022/07/08 06:29:03;;;;;;;7.72;7.03;;;;;;;24.99;48.23;99372.63;5021544;28;20029;-86
2022/07/08 06:31:28;;;;;;;7.63;6.93;;;;;;;25.29;48.17;99421.16;5021256;28;20037;-85
2022/07/08 06:33:57;;;;;;;6.35;5.80;;;;;;;25.29;47.47;99434.66;5027991;28;20576;-86
2022/07/08 06:36:24;;;;;;;6.05;5.50;;;;;;;25.02;47.48;99386.38;5019043;28;20076;-85
2022/07/08 06:38:50;;;;;;;6.43;5.82;;;;;;;25.30;47.39;99417.34;5030298;28;20029;-85
2022/07/08 06:41:15;;;;;;;6.93;6.32;;;;;;;25.43;47.17;99436.75;5034532;28;20531;-86
2022/07/08 06:43:41;;;;;;;7.57;6.80;;;;;;;25.30;47.44;99430.88;5030997;28;20089;-85
2022/07/08 06:46:06;;;;;;;7.43;6.72;;;;;;;25.27;47.22;99374.69;5036537;28;20470;-85
2022/07/08 06:48:31;;;;;;;6.32;5.72;;;;;;;25.33;47.25;99370.84;5032017;28;20026;-87
2022/07/08 06:50:57;;;;;;;7.13;6.43;;;;;;;24.54;47.06;99212.41;5018420;28;20026;-86
2022/07/08 06:53:22;;;;;;;7.15;6.55;;;;;;;24.61;47.22;99247.19;5017540;28;20056;-86
2022/07/08 06:55:48;;;;;;;7.15;6.45;;;;;;;25.36;46.78;99337.06;5027010;28;20429;-86
2022/07/08 06:58:13;;;;;;;6.30;5.80;;;;;;;25.34;46.51;99298.69;5043643;28;20052;-85
2022/07/08 07:00:39;;;;;;;5.40;4.93;;;;;;;25.97;45.23;99380.72;5018065;28;20034;-85
2022/07/08 07:03:04;;;;;;;4.63;4.22;;;;;;;25.96;44.69;99365.56;5024737;28;20478;-85
2022/07/08 07:05:30;;;;;;;5.32;4.82;;;;;;;26.22;44.49;99392.44;5015664;28;20065;-85
2022/07/08 07:07:55;;;;;;;7.07;5.88;;;;;;;26.17;44.56;99371.66;5026637;28;20026;-86
2022/07/08 07:10:20;;;;;;;6.03;5.43;;;;;;;25.22;44.86;99212.53;5017493;28;20037;-85
2022/07/08 07:12:46;;;;;;;5.70;4.82;;;;;;;26.19;44.47;99355.94;5020688;28;20550;-85
2022/07/08 07:15:11;;;;;;;5.32;4.85;;;;;;;26.49;44.42;99408.19;5028479;28;20099;-85
2022/07/08 07:17:40;;;;;;;7.72;5.40;;;;;;;26.76;43.86;99440.19;5027845;28;20417;-85
2022/07/08 07:20:06;;;;;;;5.05;4.32;;;;;;;26.11;43.95;99342.22;5022567;28;20125;-86
2022/07/08 07:22:32;;;;;;;6.22;5.30;;;;;;;25.92;43.60;99305.00;5011954;28;20109;-86
2022/07/08 07:24:57;;;;;;;5.30;4.80;;;;;;;25.24;43.32;99207.66;5013321;28;20030;-87
2022/07/08 07:27:23;;;;;;;5.40;5.00;;;;;;;26.24;43.60;99374.81;5012698;28;20733;-86
2022/07/08 07:29:48;;;;;;;4.97;4.57;;;;;;;25.59;43.67;99292.28;5013608;28;20036;-85
2022/07/08 07:32:14;;;;;;;6.05;5.45;;;;;;;25.98;43.57;99344.47;5025095;28;20029;-86
2022/07/08 07:34:39;;;;;;;9.48;8.73;;;;;;;26.17;43.84;99376.25;5021383;28;20089;-85
2022/07/08 07:37:04;;;;;;;8.05;7.28;;;;;;;26.42;43.91;99402.31;5016831;28;20651;-85
2022/07/08 07:39:30;;;;;;;7.38;6.68;;;;;;;26.12;43.70;99316.75;5015841;28;20117;-85
2022/07/08 07:41:55;;;;;;;9.48;8.57;;;;;;;26.23;43.26;99334.50;5017701;28;20075;-85
2022/07/08 07:44:21;;;;;;;7.47;6.88;;;;;;;26.31;43.37;99324.97;5030845;28;20069;-85
2022/07/08 07:46:46;;;;;;;9.98;8.20;;;;;;;27.07;43.86;99402.72;5014259;28;20034;-87
2022/07/08 07:49:13;;;;;;;13.68;12.38;;;;;;;27.40;43.34;99419.94;5026106;28;20033;-86
2022/07/08 07:51:38;;;;;;;8.73;6.40;;;;;;;27.49;43.00;99407.31;5023289;28;20168;-85
2022/07/08 07:54:04;;;;;;;8.55;6.97;;;;;;;27.22;42.79;99323.94;5024805;28;20123;-85
2022/07/08 07:56:29;;;;;;;6.18;5.63;;;;;;;26.91;42.28;99280.16;5031430;28;20136;-85
2022/07/08 07:58:54;;;;;;;7.07;5.88;;;;;;;27.62;42.15;99376.81;5028997;28;20410;-85
2022/07/08 08:01:20;;;;;;;6.10;5.55;;;;;;;27.52;41.88;99366.91;5018851;28;20033;-86
2022/07/08 08:03:45;;;;;;;5.68;4.78;;;;;;;27.89;41.41;99424.16;5022339;28;20033;-85
2022/07/08 08:06:11;;;;;;;5.72;5.13;;;;;;;27.69;41.11;99365.59;5027920;28;20048;-86
2022/07/08 08:08:36;;;;;;;6.07;5.57;;;;;;;27.32;41.50;99295.88;5023962;28;20044;-86
2022/07/08 08:11:03;;;;;;;11.23;10.30;;;;;;;28.03;41.34;99387.84;5025511;28;20033;-86
2022/07/08 08:13:29;;;;;;;8.00;7.30;;;;;;;28.22;41.13;99392.41;5024230;28;20098;-86
2022/07/08 08:15:55;;;;;;;5.15;4.72;;;;;;;28.14;40.33;99367.56;5022372;28;20045;-85
2022/07/08 08:18:21;;;;;;;5.18;4.70;;;;;;;28.33;40.16;99396.63;5021546;28;20041;-86
2022/07/08 08:20:47;;;;;;;6.68;5.93;;;;;;;28.35;40.29;99391.69;5021559;28;20049;-85
2022/07/08 08:23:13;;;;;;;5.75;4.43;;;;;;;28.35;40.08;99395.22;5016302;28;20033;-86
2022/07/08 08:25:38;;;;;;;4.40;4.00;;;;;;;28.21;39.58;99372.59;5029029;28;20424;-85
2022/07/08 08:28:04;;;;;;;4.93;4.30;;;;;;;28.05;39.72;99342.19;5025259;28;20029;-86
2022/07/08 08:30:30;;;;;;;8.43;7.47;;;;;;;27.21;39.41;99203.84;5016707;28;20033;-86
2022/07/08 08:32:56;;;;;;;6.35;5.57;;;;;;;28.07;38.86;99320.19;5017845;28;20139;-85
2022/07/08 08:35:22;;;;;;;4.30;3.75;;;;;;;28.53;37.85;99387.28;5023839;28;20113;-86
2022/07/08 08:37:48;;;;;;;4.38;4.07;;;;;;;28.14;38.10;99320.59;5019082;28;20484;-86
2022/07/08 08:40:13;;;;;;;4.65;3.85;;;;;;;28.09;38.12;99309.84;5023140;28;20078;-86
2022/07/08 08:42:40;;;;;;;4.68;3.97;;;;;;;28.78;37.55;99373.22;5022440;28;20025;-85
2022/07/08 08:45:07;;;;;;;3.63;3.33;;;;;;;28.13;37.42;99259.28;5014662;28;20041;-86
2022/07/08 08:47:34;;;;;;;4.07;3.47;;;;;;;28.56;36.74;99316.06;5018880;28;20557;-85
2022/07/08 08:52:48;;;;;;;4.78;4.22;;;;;;;28.46;36.89;99269.00;5023885;28;20148;-86
2022/07/08 08:55:17;;;;;;;4.65;4.18;;;;;;;28.79;36.59;99302.28;5019895;28;20117;-86
2022/07/08 08:57:43;;;;;;;4.90;4.45;;;;;;;28.58;36.62;99267.69;5016986;28;20090;-85
2022/07/08 09:00:09;;;;;;;5.85;5.00;;;;;;;29.48;36.48;99372.91;5025202;28;20060;-85
2022/07/08 09:02:34;;;;;;;4.35;3.55;;;;;;;29.00;35.67;99285.59;5014515;28;20127;-85
2022/07/08 09:05:04;;;;;;;5.53;4.35;;;;;;;29.60;35.70;99365.00;5020164;28;20736;-85
2022/07/08 09:07:29;;;;;;;5.18;4.47;;;;;;;29.01;35.35;99281.75;5030521;28;20029;-86
2022/07/08 09:09:55;;;;;;;4.35;4.05;;;;;;;28.99;34.98;99238.56;5016151;28;20068;-86
2022/07/08 09:12:22;;;;;;;4.50;4.10;;;;;;;29.28;34.61;99259.91;5012814;28;20022;-86
2022/07/08 09:14:51;;;;;;;4.53;4.13;;;;;;;29.92;34.93;99333.22;5011452;28;20087;-86
2022/07/08 09:17:18;;;;;;;4.80;4.40;;;;;;;29.60;34.87;99267.06;5011178;28;20037;-86
2022/07/08 09:19:48;;;;;;;4.38;4.07;;;;;;;29.59;34.67;99246.41;5011720;28;20022;-86
2022/07/08 09:22:13;;;;;;;6.63;4.50;;;;;;;29.71;34.44;99262.16;5010789;28;20521;-85
2022/07/08 09:24:39;;;;;;;5.72;5.13;;;;;;;30.43;34.41;99345.53;5026862;28;20109;-86
2022/07/08 09:27:08;;;;;;;5.10;4.63;;;;;;;30.46;34.01;99325.84;5010385;28;20030;-86
2022/07/08 09:29:35;;;;;;;4.68;4.25;;;;;;;30.81;34.10;99373.16;5011687;28;20101;-86
2022/07/08 09:32:14;;;;;;;4.70;4.30;;;;;;;31.01;33.70;99352.69;5010310;28;20029;-86
2022/07/08 09:34:43;;;;;;;5.38;4.90;;;;;;;31.08;32.92;99340.19;5021151;28;20044;-86
2022/07/08 09:37:16;;;;;;;5.07;3.83;;;;;;;30.94;33.18;99296.69;5012406;28;20095;-86
2022/07/08 09:39:43;;;;;;;6.13;4.78;;;;;;;31.32;32.55;99301.59;5009256;28;20037;-86
2022/07/08 09:42:09;;;;;;;6.03;4.75;;;;;;;31.63;32.36;99347.00;5013418;28;20080;-86
2022/07/08 09:44:36;;;;;;;5.15;4.65;;;;;;;31.77;32.27;99343.00;5014949;28;20038;-86
2022/07/08 09:47:12;;;;;;;4.80;4.18;;;;;;;31.38;32.07;99261.31;5014999;28;20029;-87
2022/07/08 09:49:46;;;;;;;7.68;5.88;;;;;;;32.04;31.85;99333.66;5016348;28;20056;-86
2022/07/08 09:52:19;;;;;;;6.20;4.47;;;;;;;32.20;30.53;99328.47;5021814;28;20030;-86
2022/07/08 09:54:45;;;;;;;6.55;5.32;;;;;;;31.58;31.71;99241.53;5016157;28;20474;-87
2022/07/08 09:57:13;;;;;;;5.22;4.45;;;;;;;32.21;31.21;99317.22;5020651;28;20045;-86
2022/07/08 09:59:39;;;;;;;5.53;5.03;;;;;;;32.46;31.37;99318.28;5014676;28;20037;-86
2022/07/08 10:02:04;;;;;;;6.22;4.95;;;;;;;32.49;30.87;99336.75;5013839;28;20025;-86
2022/07/08 10:04:30;;;;;;;5.38;4.88;;;;;;;32.39;30.60;99295.31;5014302;28;20018;-86
2022/07/08 10:06:58;;;;;;;8.52;7.72;;;;;;;32.57;30.61;99306.97;5023144;28;20021;-87
2022/07/08 10:09:25;;;;;;;3.78;3.47;;;;;;;32.64;30.36;99293.59;5024433;28;20026;-86
2022/07/08 10:11:52;;;;;;;3.75;3.42;;;;;;;32.76;30.25;99261.69;5029738;28;20036;-87
2022/07/08 10:14:18;;;;;;;4.40;3.63;;;;;;;32.56;29.85;99210.50;5030976;28;20410;-86
2022/07/08 10:16:46;;;;;;;3.95;3.55;;;;;;;32.82;29.28;99243.19;5022652;28;20033;-86
2022/07/08 10:19:16;;;;;;;4.63;4.10;;;;;;;33.34;29.59;99286.56;5051668;28;20583;-86
2022/07/08 10:21:45;;;;;;;5.18;4.35;;;;;;;33.63;29.39;99305.66;5036295;28;20114;-86
2022/07/08 10:24:19;;;;;;;4.65;3.83;;;;;;;33.72;29.22;99308.31;5020210;28;20037;-86
2022/07/08 10:26:44;;;;;;;4.00;3.40;;;;;;;33.01;28.67;99210.69;5020663;28;20054;-86
2022/07/08 10:29:11;;;;;;;4.43;3.55;;;;;;;32.96;28.95;99213.66;5026953;28;20037;-87
2022/07/08 10:31:51;;;;;;;4.60;4.30;;;;;;;33.75;29.11;99293.94;5030296;28;20056;-87
2022/07/08 10:34:22;;;;;;;5.30;4.30;;;;;;;33.89;29.06;99291.72;5035200;28;20074;-86
2022/07/08 10:36:53;;;;;;;4.70;4.30;;;;;;;33.95;28.69;99257.50;5022834;28;20049;-86
2022/07/08 10:39:41;;;;;;;5.30;4.90;;;;;;;33.54;28.48;99189.16;5050447;28;20033;-86
2022/07/08 10:42:08;;;;;;;6.65;4.78;;;;;;;33.47;28.86;99173.28;5015329;28;20041;-87
2022/07/08 10:44:43;;;;;;;4.43;4.03;;;;;;;34.48;27.77;99285.91;5032714;28;20025;-87
2022/07/08 10:47:09;;;;;;;5.32;4.57;;;;;;;34.10;27.65;99212.19;5028839;28;20084;-87
2022/07/08 10:49:49;;;;;;;5.35;4.68;;;;;;;34.46;28.13;99235.31;5026974;28;20036;-87
2022/07/08 10:52:17;;;;;;;5.43;3.75;;;;;;;33.90;27.46;99128.97;5033176;28;20036;-87
2022/07/08 10:54:43;;;;;;;4.45;4.05;;;;;;;34.65;27.60;99265.69;5034302;28;20029;-87
2022/07/08 10:57:27;;;;;;;5.00;3.58;;;;;;;33.93;27.00;99207.75;5030915;28;20057;-87
2022/07/08 11:00:06;;;;;;;3.72;3.42;;;;;;;33.16;28.50;99187.41;5012795;28;20022;-87
2022/07/08 11:02:37;;;;;;;8.18;4.55;;;;;;;33.06;28.97;99250.72;5012678;28;20490;-87
2022/07/08 11:05:03;;;;;;;6.15;4.93;;;;;;;32.58;29.56;99212.91;5035884;28;20043;-86
2022/07/08 11:07:29;;;;;;;6.32;5.72;;;;;;;33.03;29.45;99262.34;5035766;28;20124;-87
2022/07/08 11:10:01;;;;;;;7.22;5.45;;;;;;;33.09;29.75;99259.06;5035873;28;20174;-87
2022/07/08 11:12:33;;;;;;;6.82;5.55;;;;;;;32.40;29.91;99180.22;5053654;28;20456;-87
2022/07/08 11:15:00;;;;;;;6.75;5.93;;;;;;;33.08;29.75;99241.06;5019999;28;20024;-86
2022/07/08 11:17:31;;;;;;;5.47;4.50;;;;;;;33.33;28.93;99249.41;5011900;28;20056;-84
2022/07/08 11:19:59;;;;;;;5.57;5.15;;;;;;;33.57;29.01;99245.97;5012670;28;20038;-87
2022/07/08 11:22:26;;;;;;;7.60;5.95;;;;;;;33.84;28.33;99209.78;5016993;28;20037;-87
2022/07/08 11:24:53;;;;;;;5.60;5.00;;;;;;;34.46;27.66;99214.19;5022315;28;20080;-86
2022/07/08 11:27:25;;;;;;;6.05;4.15;;;;;;;34.88;27.37;99231.16;5012823;28;20022;-85
2022/07/08 11:29:52;;;;;;;6.63;5.90;;;;;;;35.03;27.26;99237.88;5030406;28;20098;-86
2022/07/08 11:32:19;;;;;;;5.90;5.15;;;;;;;33.98;26.98;99051.38;5024894;28;20139;-86